Time;durP1;ratioP1;P1;durP2;ratioP2;P2;SDS_P1;SDS_P2;PMS_P1;PMS_P2;Temp;Humidity;BMP_temperature;BMP_pressure;BME280_temperature;BME280_humidity;BME280_pressure;Samples;Min_cycle;Max_cycle;Signal;HPM_P1;HPM_P2
2020/12/27 00:01:00;;;;;;;;;;;;;;;22.38;39.05;98969.47;3126234;27;114736;-60
2020/12/27 00:02:31;;;;;;;;;;;;;;;22.36;39.09;98980.25;3133858;27;115465;-60
2020/12/27 00:04:03;;;;;;;;;;;;;;;22.36;39.44;98982.25;3117056;27;115063;-60
2020/12/27 00:05:35;;;;;;;;;;;;;;;22.39;39.30;98970.28;3126841;27;115965;-60
2020/12/27 00:07:07;;;;;;;;;;;;;;;22.35;39.41;98969.38;3134556;27;114609;-59
2020/12/27 00:08:39;;;;;;;;;;;;;;;22.33;39.25;98955.69;3133754;27;115441;-58
2020/12/27 00:10:10;;;;;;;;;;;;;;;22.31;39.37;98965.66;3120221;27;115834;-59
2020/12/27 00:11:41;;;;;;;;;;;;;;;22.28;39.41;98946.72;3121120;27;114804;-59
2020/12/27 00:13:13;;;;;;;;;;;;;;;22.27;39.34;98934.63;3128269;27;115239;-59
2020/12/27 00:14:45;;;;;;;;;;;;;;;22.24;39.18;98929.75;3132213;27;115391;-59
2020/12/27 00:16:25;;;;;;;;;;;;;;;22.21;39.05;98930.50;3119748;27;114604;-59
2020/12/27 00:17:57;;;;;;;;;;;;;;;22.21;39.45;98926.88;3130638;27;116174;-58
2020/12/27 00:19:28;;;;;;;;;;;;;;;22.17;39.22;98910.72;3132067;27;114961;-59
2020/12/27 00:20:59;;;;;;;;;;;;;;;22.10;39.49;98899.31;3137168;27;115914;-59
2020/12/27 00:22:30;;;;;;;;;;;;;;;22.02;39.60;98886.28;3134078;27;114193;-60
2020/12/27 00:24:02;;;;;;;;;;;;;;;21.93;39.52;98899.75;3128014;27;114242;-59
2020/12/27 00:25:37;;;;;;;;;;;;;;;21.90;39.50;98930.56;3125619;27;114181;-60
2020/12/27 00:27:08;;;;;;;;;;;;;;;21.91;39.73;98912.50;3134342;27;115348;-60
2020/12/27 00:28:41;;;;;;;;;;;;;;;21.92;39.36;98912.16;3119415;27;114294;-60
2020/12/27 00:30:13;;;;;;;;;;;;;;;21.90;39.36;98879.94;3123719;27;114086;-58
2020/12/27 00:31:44;;;;;;;;;;;;;;;21.89;39.94;98886.78;3133430;27;114130;-59
2020/12/27 00:33:15;;;;;;;;;;;;;;;21.88;39.44;98857.00;3132610;27;113884;-59
2020/12/27 00:34:47;;;;;;;;;;;;;;;21.88;39.58;98851.41;3118764;27;114271;-60
2020/12/27 00:36:20;;;;;;;;;;;;;;;21.85;39.85;98840.91;3128917;27;114175;-59
2020/12/27 00:37:51;;;;;;;;;;;;;;;21.83;39.88;98827.19;3118815;27;114191;-59
2020/12/27 00:39:23;;;;;;;;;;;;;;;21.81;39.94;98834.34;3127658;27;114879;-58
2020/12/27 00:40:54;;;;;;;;;;;;;;;21.80;40.16;98849.63;3119263;27;114156;-58
2020/12/27 00:42:25;;;;;;;;;;;;;;;21.77;40.15;98816.59;3133752;27;117126;-59
2020/12/27 00:43:56;;;;;;;;;;;;;;;21.79;40.42;98808.63;3120486;27;115398;-59
2020/12/27 00:45:28;;;;;;;;;;;;;;;21.78;40.24;98819.06;3128861;27;113998;-59
2020/12/27 00:46:59;;;;;;;;;;;;;;;21.77;40.20;98808.16;3119920;27;114126;-60
2020/12/27 00:48:31;;;;;;;;;;;;;;;21.73;40.35;98780.00;3115710;27;115024;-59
2020/12/27 00:50:03;;;;;;;;;;;;;;;21.71;40.56;98779.56;3124305;27;114354;-59
2020/12/27 00:51:36;;;;;;;;;;;;;;;21.68;40.61;98761.41;3133265;27;116977;-59
2020/12/27 00:53:07;;;;;;;;;;;;;;;21.66;40.40;98769.44;3134164;27;115513;-59
2020/12/27 00:54:39;;;;;;;;;;;;;;;21.65;40.74;98738.88;3132306;27;114517;-59
2020/12/27 00:56:10;;;;;;;;;;;;;;;21.64;40.61;98734.44;3120050;27;116115;-59
2020/12/27 00:57:41;;;;;;;;;;;;;;;21.63;40.71;98730.78;3129157;27;114486;-59
2020/12/27 00:59:13;;;;;;;;;;;;;;;21.64;40.68;98738.06;3132215;27;115278;-59
2020/12/27 01:00:44;;;;;;;;;;;;;;;21.66;40.79;98712.41;3132848;27;115368;-59
2020/12/27 01:02:15;;;;;;;;;;;;;;;21.66;40.87;98690.72;3119007;27;114840;-59
2020/12/27 01:03:46;;;;;;;;;;;;;;;21.68;41.35;98702.41;3133488;27;115262;-59
2020/12/27 01:05:18;;;;;;;;;;;;;;;21.71;41.60;98698.06;3132754;27;114816;-59
2020/12/27 01:06:50;;;;;;;;;;;;;;;21.72;41.23;98677.97;3118765;27;117508;-60
2020/12/27 01:08:22;;;;;;;;;;;;;;;21.72;41.51;98677.97;3129071;27;114897;-59
2020/12/27 01:09:53;;;;;;;;;;;;;;;21.73;41.08;98668.38;3132864;27;115816;-59
2020/12/27 01:11:24;;;;;;;;;;;;;;;21.74;41.47;98655.13;3117204;27;114624;-59
2020/12/27 01:12:56;;;;;;;;;;;;;;;21.76;41.52;98654.78;3128610;27;115957;-59
2020/12/27 01:14:39;;;;;;;;;;;;;;;21.76;41.45;98633.06;3131191;27;114785;-59
2020/12/27 01:16:19;;;;;;;;;;;;;;;21.77;41.51;98617.03;3132656;27;115749;-59
2020/12/27 01:17:51;;;;;;;;;;;;;;;21.77;41.37;98608.59;3119241;27;115686;-59
2020/12/27 01:19:22;;;;;;;;;;;;;;;21.77;41.42;98617.84;3126776;27;114557;-59
2020/12/27 01:20:54;;;;;;;;;;;;;;;21.77;41.64;98597.34;3118818;27;114727;-59
2020/12/27 01:22:25;;;;;;;;;;;;;;;21.77;41.57;98606.59;3128695;27;114628;-58
2020/12/27 01:23:57;;;;;;;;;;;;;;;21.77;41.52;98600.16;3132522;27;114693;-59
2020/12/27 01:25:28;;;;;;;;;;;;;;;21.75;41.43;98586.50;3132744;27;115985;-59
2020/12/27 01:27:00;;;;;;;;;;;;;;;21.75;41.46;98606.19;3135076;27;114835;-58
2020/12/27 01:28:32;;;;;;;;;;;;;;;21.74;41.43;98585.69;3119277;27;114430;-59
2020/12/27 01:30:12;;;;;;;;;;;;;;;21.73;41.33;98586.88;3127211;27;114246;-59
2020/12/27 01:31:43;;;;;;;;;;;;;;;21.72;41.23;98576.78;3132918;27;114173;-58
2020/12/27 01:33:14;;;;;;;;;;;;;;;21.71;41.00;98561.13;3132551;27;114289;-58
2020/12/27 01:34:46;;;;;;;;;;;;;;;21.71;41.40;98557.53;3119189;27;114531;-59
2020/12/27 01:36:27;;;;;;;;;;;;;;;21.70;41.56;98541.84;3128291;27;114224;-58
2020/12/27 01:37:59;;;;;;;;;;;;;;;21.70;41.44;98527.78;3119109;27;116144;-58
2020/12/27 01:39:30;;;;;;;;;;;;;;;21.69;41.31;98529.78;3128081;27;114978;-58
2020/12/27 01:41:03;;;;;;;;;;;;;;;21.68;41.58;98511.28;3133955;27;114470;-58
2020/12/27 01:42:35;;;;;;;;;;;;;;;21.67;41.76;98520.09;3134051;27;114428;-58
2020/12/27 01:44:14;;;;;;;;;;;;;;;21.66;41.44;98498.81;3131138;27;114908;-58
2020/12/27 01:45:46;;;;;;;;;;;;;;;21.64;41.09;98485.13;3133236;27;114497;-58
2020/12/27 01:47:20;;;;;;;;;;;;;;;21.63;41.61;98479.88;3134790;27;114420;-58
2020/12/27 01:48:51;;;;;;;;;;;;;;;21.60;41.38;98484.25;3137239;27;114482;-58
2020/12/27 01:50:23;;;;;;;;;;;;;;;21.60;41.43;98470.22;3132709;27;115927;-58
2020/12/27 01:51:54;;;;;;;;;;;;;;;21.58;41.31;98472.56;3120612;27;114906;-59
2020/12/27 01:53:25;;;;;;;;;;;;;;;21.55;41.13;98459.28;3128917;27;114616;-58
2020/12/27 01:54:56;;;;;;;;;;;;;;;21.54;41.25;98437.97;3120380;27;115226;-58
2020/12/27 01:56:37;;;;;;;;;;;;;;;21.53;41.47;98419.50;3129581;27;115118;-58
2020/12/27 01:58:19;;;;;;;;;;;;;;;21.51;41.50;98407.03;3134194;27;115341;-59
2020/12/27 01:59:52;;;;;;;;;;;;;;;21.49;41.68;98398.16;3121107;27;115585;-59
2020/12/27 02:01:23;;;;;;;;;;;;;;;21.46;41.48;98399.72;3115974;27;115131;-60
2020/12/27 02:02:55;;;;;;;;;;;;;;;21.44;41.28;98385.22;3127820;27;114999;-58
2020/12/27 02:04:26;;;;;;;;;;;;;;;21.42;41.43;98398.88;3132006;27;115410;-58
2020/12/27 02:05:58;;;;;;;;;;;;;;;21.41;41.23;98376.75;3133988;27;114865;-59
2020/12/27 02:07:29;;;;;;;;;;;;;;;21.37;41.73;98373.91;3133626;27;115130;-59
2020/12/27 02:09:01;;;;;;;;;;;;;;;21.38;41.46;98371.91;3132299;27;114344;-59
2020/12/27 02:10:32;;;;;;;;;;;;;;;21.35;41.87;98353.78;3137713;27;115449;-58
2020/12/27 02:12:06;;;;;;;;;;;;;;;21.33;42.04;98358.97;3134256;27;115071;-58
2020/12/27 02:13:48;;;;;;;;;;;;;;;21.32;42.16;98362.16;3121050;27;114863;-58
2020/12/27 02:15:19;;;;;;;;;;;;;;;21.28;42.14;98359.31;3119431;27;116085;-59
2020/12/27 02:16:51;;;;;;;;;;;;;;;21.25;42.15;98326.38;3132394;27;114663;-58
2020/12/27 02:18:22;;;;;;;;;;;;;;;21.23;41.97;98326.72;3119487;27;115764;-58
2020/12/27 02:19:53;;;;;;;;;;;;;;;21.21;41.88;98319.88;3127853;27;115332;-59
2020/12/27 02:21:24;;;;;;;;;;;;;;;21.20;41.98;98323.88;3133644;27;114833;-58
2020/12/27 02:22:56;;;;;;;;;;;;;;;21.15;42.06;98355.88;3133790;27;115858;-58
2020/12/27 02:24:29;;;;;;;;;;;;;;;21.13;42.02;98332.97;3132150;27;114369;-58
2020/12/27 02:26:00;;;;;;;;;;;;;;;21.12;41.90;98333.34;3133786;27;116182;-58
2020/12/27 02:27:33;;;;;;;;;;;;;;;21.10;42.06;98344.94;3133641;27;114595;-58
2020/12/27 02:29:08;;;;;;;;;;;;;;;21.07;42.21;98309.19;3127117;27;114665;-58
2020/12/27 02:30:39;;;;;;;;;;;;;;;21.05;42.21;98296.72;3120184;27;115649;-57
2020/12/27 02:32:10;;;;;;;;;;;;;;;21.05;42.10;98299.53;3132326;27;115232;-57
2020/12/27 02:33:42;;;;;;;;;;;;;;;21.03;42.07;98304.72;3119433;27;114183;-58
2020/12/27 02:35:13;;;;;;;;;;;;;;;21.02;42.38;98286.25;3128879;27;113947;-58
2020/12/27 02:36:45;;;;;;;;;;;;;;;20.97;42.04;98278.94;3132528;27;114479;-57
2020/12/27 02:38:16;;;;;;;;;;;;;;;20.94;42.17;98284.53;3133013;27;114506;-57
2020/12/27 02:39:47;;;;;;;;;;;;;;;20.93;42.32;98261.25;3133361;27;113641;-58
2020/12/27 02:41:21;;;;;;;;;;;;;;;20.91;42.39;98259.97;3134129;27;113993;-58
2020/12/27 02:42:52;;;;;;;;;;;;;;;20.89;42.40;98249.16;3134229;27;114344;-58
2020/12/27 02:44:24;;;;;;;;;;;;;;;20.87;42.26;98265.56;3132068;27;113885;-58
2020/12/27 02:45:55;;;;;;;;;;;;;;;20.85;42.48;98256.69;3133141;27;114696;-58
2020/12/27 02:47:26;;;;;;;;;;;;;;;20.82;42.56;98247.03;3133638;27;114152;-58
2020/12/27 02:48:58;;;;;;;;;;;;;;;20.79;42.51;98221.72;3132142;27;114511;-58
2020/12/27 02:50:29;;;;;;;;;;;;;;;20.78;42.67;98206.88;3132864;27;114308;-58
2020/12/27 02:52:01;;;;;;;;;;;;;;;20.76;42.51;98200.00;3133454;27;113929;-58
2020/12/27 02:53:32;;;;;;;;;;;;;;;20.74;42.55;98206.03;3132214;27;114476;-58
2020/12/27 02:55:04;;;;;;;;;;;;;;;20.73;42.81;98169.91;3122965;27;114169;-58
2020/12/27 02:56:35;;;;;;;;;;;;;;;20.71;42.98;98186.31;3115627;27;114128;-58
2020/12/27 02:58:06;;;;;;;;;;;;;;;20.69;42.97;98169.03;3128970;27;114703;-59
2020/12/27 02:59:38;;;;;;;;;;;;;;;20.67;43.19;98143.38;3131643;27;115065;-59
2020/12/27 03:01:09;;;;;;;;;;;;;;;20.67;43.28;98124.53;3133872;27;114577;-59
2020/12/27 03:02:40;;;;;;;;;;;;;;;20.66;43.28;98122.94;3132694;27;115167;-59
2020/12/27 03:04:11;;;;;;;;;;;;;;;20.64;43.17;98116.06;3129997;27;115792;-59
2020/12/27 03:05:42;;;;;;;;;;;;;;;20.63;43.31;98115.25;3130581;27;115248;-59
2020/12/27 03:07:14;;;;;;;;;;;;;;;20.62;43.32;98113.66;3122232;27;114896;-58
2020/12/27 03:08:45;;;;;;;;;;;;;;;20.59;43.27;98117.19;3133484;27;116925;-58
2020/12/27 03:10:17;;;;;;;;;;;;;;;20.58;43.24;98101.53;3133428;27;115630;-58
2020/12/27 03:11:48;;;;;;;;;;;;;;;20.57;43.07;98091.53;3119917;27;115305;-57
2020/12/27 03:13:19;;;;;;;;;;;;;;;20.55;43.12;98095.88;3128849;27;115600;-59
2020/12/27 03:14:51;;;;;;;;;;;;;;;20.54;43.17;98092.28;3131696;27;116727;-59
2020/12/27 03:16:22;;;;;;;;;;;;;;;20.52;43.26;98075.03;3137234;27;114608;-59
2020/12/27 03:17:53;;;;;;;;;;;;;;;20.51;43.16;98066.97;3119620;27;115930;-59
2020/12/27 03:19:25;;;;;;;;;;;;;;;20.50;43.10;98062.56;3113798;27;115726;-59
2020/12/27 03:20:56;;;;;;;;;;;;;;;20.49;43.29;98058.94;3129194;27;114451;-58
2020/12/27 03:22:28;;;;;;;;;;;;;;;20.47;43.22;98047.31;3132456;27;114841;-58
2020/12/27 03:23:59;;;;;;;;;;;;;;;20.48;43.01;98031.28;3118722;27;115965;-58
2020/12/27 03:25:30;;;;;;;;;;;;;;;20.44;43.16;98034.03;3128136;27;115758;-57
2020/12/27 03:27:02;;;;;;;;;;;;;;;20.42;43.38;98026.00;3133170;27;115203;-58
2020/12/27 03:28:33;;;;;;;;;;;;;;;20.41;43.46;98018.78;3117115;27;115786;-58
2020/12/27 03:30:05;;;;;;;;;;;;;;;20.39;43.28;98007.13;3109039;27;115585;-58
2020/12/27 03:31:37;;;;;;;;;;;;;;;20.39;43.04;97990.31;3128876;27;115846;-59
2020/12/27 03:33:09;;;;;;;;;;;;;;;20.35;43.24;97983.81;3115096;27;114980;-58
2020/12/27 03:34:40;;;;;;;;;;;;;;;20.35;43.35;97974.63;3127669;27;114930;-58
2020/12/27 03:36:11;;;;;;;;;;;;;;;20.33;43.39;97980.59;3133188;27;116094;-58
2020/12/27 03:37:42;;;;;;;;;;;;;;;20.32;43.13;97958.53;3122845;27;115006;-57
2020/12/27 03:39:14;;;;;;;;;;;;;;;20.29;43.31;97962.09;3126746;27;115876;-58
2020/12/27 03:40:45;;;;;;;;;;;;;;;20.26;43.27;97941.22;3119700;27;114424;-58
2020/12/27 03:42:17;;;;;;;;;;;;;;;20.25;43.41;97936.81;3128891;27;114316;-60
2020/12/27 03:43:48;;;;;;;;;;;;;;;20.25;43.40;97941.59;3132987;27;113940;-58
2020/12/27 03:45:20;;;;;;;;;;;;;;;20.21;43.30;97921.13;3117424;27;114509;-58
2020/12/27 03:46:51;;;;;;;;;;;;;;;20.19;43.42;97918.69;3127433;27;114574;-59
2020/12/27 03:48:22;;;;;;;;;;;;;;;20.18;43.28;97935.88;3125341;27;114370;-59
2020/12/27 03:49:53;;;;;;;;;;;;;;;20.17;43.32;97923.06;3131856;27;114246;-59
2020/12/27 03:51:25;;;;;;;;;;;;;;;20.15;43.49;97905.81;3120799;27;114051;-58
2020/12/27 03:52:56;;;;;;;;;;;;;;;20.14;43.65;97902.19;3130770;27;114486;-58
2020/12/27 03:54:27;;;;;;;;;;;;;;;20.13;43.69;97894.16;3131656;27;114358;-59
2020/12/27 03:55:59;;;;;;;;;;;;;;;20.10;43.43;97906.97;3119340;27;114489;-59
2020/12/27 03:57:30;;;;;;;;;;;;;;;20.10;43.74;97869.72;3128667;27;114403;-59
2020/12/27 03:59:01;;;;;;;;;;;;;;;20.08;43.73;97866.50;3130940;27;114053;-59
2020/12/27 04:00:33;;;;;;;;;;;;;;;20.07;43.49;97867.69;3123659;27;114670;-58
2020/12/27 04:02:04;;;;;;;;;;;;;;;20.04;43.75;97858.00;3131074;27;114766;-58
2020/12/27 04:03:36;;;;;;;;;;;;;;;20.05;43.48;97861.63;3122805;27;114891;-58
2020/12/27 04:05:07;;;;;;;;;;;;;;;20.04;43.62;97888.84;3130817;27;116236;-58
2020/12/27 04:06:38;;;;;;;;;;;;;;;20.02;43.56;97856.81;3120507;27;115014;-58
2020/12/27 04:08:10;;;;;;;;;;;;;;;19.98;43.82;97835.16;3134354;27;114793;-58
2020/12/27 04:09:41;;;;;;;;;;;;;;;19.97;43.94;97833.53;3120529;27;116049;-58
2020/12/27 04:11:13;;;;;;;;;;;;;;;19.95;43.76;97824.69;3131484;27;116802;-58
2020/12/27 04:12:46;;;;;;;;;;;;;;;19.95;43.89;97812.66;3135342;27;114344;-57
2020/12/27 04:14:17;;;;;;;;;;;;;;;19.93;44.08;97804.66;3131146;27;116331;-58
2020/12/27 04:15:49;;;;;;;;;;;;;;;19.91;43.87;97840.66;3134240;27;114123;-57
2020/12/27 04:17:20;;;;;;;;;;;;;;;19.89;43.88;97791.78;3134196;27;115619;-58
2020/12/27 04:18:51;;;;;;;;;;;;;;;19.85;43.88;97797.31;3134710;27;115082;-58
2020/12/27 04:20:22;;;;;;;;;;;;;;;19.86;44.11;97790.53;3138524;27;115286;-58
2020/12/27 04:21:54;;;;;;;;;;;;;;;19.85;44.04;97783.31;3134998;27;115750;-58
2020/12/27 04:23:25;;;;;;;;;;;;;;;19.83;44.02;97777.31;3134114;27;114996;-58
2020/12/27 04:24:56;;;;;;;;;;;;;;;19.82;44.07;97792.50;3134137;27;116351;-58
2020/12/27 04:26:27;;;;;;;;;;;;;;;19.81;43.97;97770.44;3135323;27;114285;-58
2020/12/27 04:27:59;;;;;;;;;;;;;;;19.80;44.22;97754.84;3120699;27;115677;-58
2020/12/27 04:29:30;;;;;;;;;;;;;;;19.78;44.04;97760.81;3116598;27;114637;-58
2020/12/27 04:31:01;;;;;;;;;;;;;;;19.77;44.22;97766.81;3114994;27;115943;-58
2020/12/27 04:32:32;;;;;;;;;;;;;;;19.75;44.10;97747.59;3118855;27;115806;-58
2020/12/27 04:34:04;;;;;;;;;;;;;;;19.73;44.02;97740.75;3120430;27;115820;-58
2020/12/27 04:35:35;;;;;;;;;;;;;;;19.71;44.19;97735.53;3129622;27;115744;-58
2020/12/27 04:37:07;;;;;;;;;;;;;;;19.68;44.29;97736.28;3134554;27;114745;-58
2020/12/27 04:38:38;;;;;;;;;;;;;;;19.68;44.20;97732.69;3133199;27;115170;-57
2020/12/27 04:40:09;;;;;;;;;;;;;;;19.66;44.19;97712.66;3120966;27;114739;-57
2020/12/27 04:41:40;;;;;;;;;;;;;;;19.64;44.18;97715.03;3129863;27;114645;-57
2020/12/27 04:43:13;;;;;;;;;;;;;;;19.63;44.14;97711.41;3124417;27;114613;-58
2020/12/27 04:44:45;;;;;;;;;;;;;;;19.62;44.27;97695.81;3128628;27;114431;-57
2020/12/27 04:46:17;;;;;;;;;;;;;;;19.61;44.29;97699.81;3134874;27;114106;-57
2020/12/27 04:47:49;;;;;;;;;;;;;;;19.59;44.35;97693.75;3135476;27;114408;-57
2020/12/27 04:49:20;;;;;;;;;;;;;;;19.60;44.14;97681.38;3132728;27;114084;-57
2020/12/27 04:50:52;;;;;;;;;;;;;;;19.58;44.20;97689.34;3134550;27;113897;-57
2020/12/27 04:52:23;;;;;;;;;;;;;;;19.57;44.19;97690.56;3130934;27;113889;-57
2020/12/27 04:53:55;;;;;;;;;;;;;;;19.54;44.37;97664.09;3133364;27;114107;-57
2020/12/27 04:55:26;;;;;;;;;;;;;;;19.56;44.55;97662.91;3133896;27;113975;-57
2020/12/27 04:56:59;;;;;;;;;;;;;;;19.53;44.54;97664.50;3134804;27;113859;-56
2020/12/27 04:58:30;;;;;;;;;;;;;;;19.50;44.27;97643.66;3120321;27;114361;-56
2020/12/27 05:00:04;;;;;;;;;;;;;;;19.47;44.76;97635.22;3128782;27;114034;-57
2020/12/27 05:01:38;;;;;;;;;;;;;;;19.48;44.41;97628.44;3133997;27;114344;-57
2020/12/27 05:03:13;;;;;;;;;;;;;;;19.47;44.41;97624.03;3119852;27;114554;-57
2020/12/27 05:04:46;;;;;;;;;;;;;;;19.47;44.39;97622.03;3133213;27;114253;-57
2020/12/27 05:06:18;;;;;;;;;;;;;;;19.47;44.47;97626.81;3132690;27;115892;-57
2020/12/27 05:07:49;;;;;;;;;;;;;;;19.45;44.39;97604.78;3134806;27;115286;-57
2020/12/27 05:09:27;;;;;;;;;;;;;;;19.45;44.50;97631.97;3133071;27;114679;-57
2020/12/27 05:11:02;;;;;;;;;;;;;;;19.43;44.31;97611.94;3134883;27;114499;-57
2020/12/27 05:12:34;;;;;;;;;;;;;;;19.42;44.49;97601.94;3120813;27;114556;-57
2020/12/27 05:14:06;;;;;;;;;;;;;;;19.41;44.70;97606.72;3127809;27;114746;-58
2020/12/27 05:15:37;;;;;;;;;;;;;;;19.41;44.55;97605.91;3120494;27;114785;-58
2020/12/27 05:17:12;;;;;;;;;;;;;;;19.41;44.69;97600.31;3126623;27;114393;-58
2020/12/27 05:18:43;;;;;;;;;;;;;;;19.41;44.63;97609.53;3132967;27;114857;-58
2020/12/27 05:20:16;;;;;;;;;;;;;;;19.39;44.59;97603.50;3133239;27;114812;-58
2020/12/27 05:21:48;;;;;;;;;;;;;;;19.37;44.80;97589.06;3126166;27;114084;-58
2020/12/27 05:23:23;;;;;;;;;;;;;;;19.35;44.92;97627.06;3133292;27;114398;-57
2020/12/27 05:24:56;;;;;;;;;;;;;;;19.35;44.82;97582.25;3134068;27;115477;-57
2020/12/27 05:26:28;;;;;;;;;;;;;;;19.35;44.88;97588.66;3138543;27;114538;-57
2020/12/27 05:28:01;;;;;;;;;;;;;;;19.35;44.61;97587.88;3134348;27;114796;-57
2020/12/27 05:29:33;;;;;;;;;;;;;;;19.32;44.57;97586.63;3130042;27;115149;-57
2020/12/27 05:31:14;;;;;;;;;;;;;;;19.29;44.82;97573.41;3134053;27;116113;-57
2020/12/27 05:32:46;;;;;;;;;;;;;;;19.29;44.87;97553.00;3134902;27;116077;-57
2020/12/27 05:34:18;;;;;;;;;;;;;;;19.28;44.77;97565.38;3133241;27;115923;-57
2020/12/27 05:35:59;;;;;;;;;;;;;;;19.28;44.81;97560.59;3133889;27;115860;-56
2020/12/27 05:37:30;;;;;;;;;;;;;;;19.26;44.72;97562.94;3133889;27;115819;-56
2020/12/27 05:39:02;;;;;;;;;;;;;;;19.25;44.67;97558.56;3132764;27;114679;-57
2020/12/27 05:40:38;;;;;;;;;;;;;;;19.25;44.73;97549.34;3134766;27;117630;-56
2020/12/27 05:42:09;;;;;;;;;;;;;;;19.24;44.74;97531.75;3134150;27;116236;-57
2020/12/27 05:43:40;;;;;;;;;;;;;;;19.25;44.77;97549.34;3134330;27;116252;-57
2020/12/27 05:45:17;;;;;;;;;;;;;;;19.23;44.74;97555.31;3132005;27;115917;-57
2020/12/27 05:46:49;;;;;;;;;;;;;;;19.19;44.84;97551.69;3133711;27;114742;-57
2020/12/27 05:48:21;;;;;;;;;;;;;;;19.18;44.90;97549.25;3137388;27;115630;-57
2020/12/27 05:49:53;;;;;;;;;;;;;;;19.18;44.88;97558.47;3132353;27;114236;-57
2020/12/27 05:51:25;;;;;;;;;;;;;;;19.17;44.78;97539.28;3132991;27;113936;-56
2020/12/27 05:52:58;;;;;;;;;;;;;;;19.14;44.99;97540.81;3121699;27;113867;-56
2020/12/27 05:54:36;;;;;;;;;;;;;;;19.16;44.80;97543.25;3132578;27;114509;-56
2020/12/27 05:56:08;;;;;;;;;;;;;;;19.15;44.72;97547.22;3120965;27;114059;-56
2020/12/27 05:57:40;;;;;;;;;;;;;;;19.15;44.94;97547.22;3129608;27;113893;-57
2020/12/27 05:59:12;;;;;;;;;;;;;;;19.16;45.17;97554.44;3126527;27;114135;-57
2020/12/27 06:00:44;;;;;;;;;;;;;;;19.14;45.13;97554.00;3127680;27;114043;-57
2020/12/27 06:02:34;;;;;;;;;;;;;;;19.13;45.61;97544.81;3134450;27;114293;-57
2020/12/27 06:04:12;;;;;;;;;;;;;;;19.13;45.46;97547.59;3118870;27;114265;-57
2020/12/27 06:05:46;;;;;;;;;;;;;;;19.12;45.55;97540.41;3116193;27;114369;-58
2020/12/27 06:07:34;;;;;;;;;;;;;;;19.13;45.41;97525.22;3118909;27;114249;-58
2020/12/27 06:09:06;;;;;;;;;;;;;;;19.12;45.39;97540.41;3125727;27;115111;-58
2020/12/27 06:10:47;;;;;;;;;;;;;;;19.11;45.54;97536.00;3134703;27;113961;-58
2020/12/27 06:12:20;;;;;;;;;;;;;;;19.14;45.29;97532.44;3138130;27;114053;-58
2020/12/27 06:13:58;;;;;;;;;;;;;;;19.16;45.56;97532.06;3134339;27;114563;-57
2020/12/27 06:15:30;;;;;;;;;;;;;;;19.20;45.45;97518.91;3119050;27;114666;-58
2020/12/27 06:17:04;;;;;;;;;;;;;;;19.23;45.63;97529.31;3129929;27;114370;-58
2020/12/27 06:18:38;;;;;;;;;;;;;;;19.25;45.52;97513.78;3119595;27;115680;-59
2020/12/27 06:20:14;;;;;;;;;;;;;;;19.29;45.96;97516.59;3119670;27;115171;-58
2020/12/27 06:22:01;;;;;;;;;;;;;;;19.31;45.76;97514.22;3109556;28;114187;-58
2020/12/27 06:23:33;;;;;;;;;;;;;;;19.35;45.75;97515.88;3108507;28;114458;-59
2020/12/27 06:25:04;;;;;;;;;;;;;;;19.39;45.63;97516.72;3120211;27;115374;-58
2020/12/27 06:26:36;;;;;;;;;;;;;;;19.43;45.69;97505.56;3119598;27;114004;-58
2020/12/27 06:28:07;;;;;;;;;;;;;;;19.48;45.73;97508.84;3122042;27;116029;-58
2020/12/27 06:29:57;;;;;;;;;;;;;;;19.52;45.64;97503.28;3115295;27;115432;-58
2020/12/27 06:31:29;;;;;;;;;;;;;;;19.58;45.80;97503.75;3117503;27;114700;-58
2020/12/27 06:33:10;;;;;;;;;;;;;;;19.62;45.74;97507.38;3120977;27;114145;-58
2020/12/27 06:34:42;;;;;;;;;;;;;;;19.66;45.84;97497.81;3124141;27;115262;-58
2020/12/27 06:36:48;;;;;;;;;;;;;;;19.72;45.87;97509.44;3121374;27;115757;-58
2020/12/27 06:38:21;;;;;;;;;;;;;;;19.77;45.72;97498.69;3107562;27;115100;-59
2020/12/27 06:39:52;;;;;;;;;;;;;;;19.81;45.53;97491.13;3118574;27;115958;-58
2020/12/27 06:41:24;;;;;;;;;;;;;;;19.86;45.60;97490.78;3120400;27;115596;-58
2020/12/27 06:43:13;;;;;;;;;;;;;;;19.90;45.38;97486.00;3120456;27;115290;-58
2020/12/27 06:44:52;;;;;;;;;;;;;;;19.96;45.35;97478.84;3120034;27;115672;-58
2020/12/27 06:46:26;;;;;;;;;;;;;;;20.01;45.40;97460.06;3120870;27;114171;-58
2020/12/27 06:47:58;;;;;;;;;;;;;;;20.04;45.04;97446.06;3121560;27;115478;-58
2020/12/27 06:49:29;;;;;;;;;;;;;;;20.08;45.27;97429.28;3119929;27;114700;-58
2020/12/27 06:51:00;;;;;;;;;;;;;;;20.11;45.15;97426.50;3121120;27;115202;-59
2020/12/27 06:52:32;;;;;;;;;;;;;;;20.16;45.07;97416.94;3119345;27;116186;-58
2020/12/27 06:54:03;;;;;;;;;;;;;;;20.19;44.93;97411.34;3119087;27;114925;-58
2020/12/27 06:55:36;;;;;;;;;;;;;;;20.24;44.85;97412.97;3119844;27;114666;-59
2020/12/27 06:57:08;;;;;;;;;;;;;;;20.26;44.58;97413.38;3118896;27;115941;-58
2020/12/27 06:58:41;;;;;;;;;;;;;;;20.31;44.81;97415.81;3119365;27;114089;-59
2020/12/27 07:00:23;;;;;;;;;;;;;;;20.34;44.53;97415.06;3119590;27;114329;-59
2020/12/27 07:02:07;;;;;;;;;;;;;;;20.38;44.51;97425.09;3121668;27;114327;-58
2020/12/27 07:03:38;;;;;;;;;;;;;;;20.41;44.51;97424.28;3121338;27;114080;-58
2020/12/27 07:05:10;;;;;;;;;;;;;;;20.45;44.39;97421.50;3114859;27;114589;-58
2020/12/27 07:06:45;;;;;;;;;;;;;;;20.48;44.16;97426.34;3120123;27;114343;-58
2020/12/27 07:08:37;;;;;;;;;;;;;;;20.51;43.94;97422.72;3113095;27;114485;-58
2020/12/27 07:10:10;;;;;;;;;;;;;;;20.56;44.18;97415.94;3116125;27;114147;-58
2020/12/27 07:11:43;;;;;;;;;;;;;;;20.58;43.79;97414.34;3122112;27;114134;-58
2020/12/27 07:13:15;;;;;;;;;;;;;;;20.62;43.97;97420.78;3121588;27;114337;-58
2020/12/27 07:14:49;;;;;;;;;;;;;;;20.67;43.61;97416.81;3118999;27;114829;-56
2020/12/27 07:16:42;;;;;;;;;;;;;;;20.69;43.59;97403.16;3121434;27;113993;-56
2020/12/27 07:18:22;;;;;;;;;;;;;;;20.72;43.40;97399.56;3125092;27;113949;-56
2020/12/27 07:19:58;;;;;;;;;;;;;;;20.74;43.45;97399.97;3136760;27;114173;-57
2020/12/27 07:21:30;;;;;;;;;;;;;;;20.78;43.27;97395.19;3121400;27;114559;-59
2020/12/27 07:23:09;;;;;;;;;;;;;;;20.79;43.58;97397.59;3115399;27;114433;-59
2020/12/27 07:24:41;;;;;;;;;;;;;;;20.82;43.20;97391.19;3119842;27;115859;-59
2020/12/27 07:26:13;;;;;;;;;;;;;;;20.84;43.06;97393.59;3130601;27;114246;-57
2020/12/27 07:27:44;;;;;;;;;;;;;;;20.88;43.32;97407.63;3131839;27;114599;-59
2020/12/27 07:29:17;;;;;;;;;;;;;;;20.90;43.12;97405.22;3127332;27;114063;-57
2020/12/27 07:30:55;;;;;;;;;;;;;;;20.93;43.26;97416.47;3133396;27;114390;-57
2020/12/27 07:32:26;;;;;;;;;;;;;;;20.95;43.17;97404.84;3132850;27;115847;-56
2020/12/27 07:33:59;;;;;;;;;;;;;;;20.97;42.96;97397.63;3131943;27;114795;-57
2020/12/27 07:35:30;;;;;;;;;;;;;;;21.00;43.24;97396.84;3130368;27;114248;-57
2020/12/27 07:37:03;;;;;;;;;;;;;;;21.03;43.08;97392.44;3133127;27;114732;-57
2020/12/27 07:38:53;;;;;;;;;;;;;;;21.05;42.97;97395.63;3130983;27;114306;-58
2020/12/27 07:40:29;;;;;;;;;;;;;;;21.08;42.90;97392.03;3132810;27;114204;-57
2020/12/27 07:42:00;;;;;;;;;;;;;;;21.10;42.69;97389.63;3137541;27;115518;-57
2020/12/27 07:43:32;;;;;;;;;;;;;;;21.11;42.73;97392.06;3135091;27;115998;-57
2020/12/27 07:45:05;;;;;;;;;;;;;;;21.14;42.78;97379.25;3134256;27;115689;-57
2020/12/27 07:46:37;;;;;;;;;;;;;;;21.17;42.76;97372.81;3134810;27;114538;-59
2020/12/27 07:48:10;;;;;;;;;;;;;;;21.18;42.45;97380.03;3133424;27;114701;-59
2020/12/27 07:49:42;;;;;;;;;;;;;;;21.20;42.67;97377.66;3108238;27;115926;-59
2020/12/27 07:51:18;;;;;;;;;;;;;;;21.22;42.58;97381.66;3129185;27;114902;-58
2020/12/27 07:52:52;;;;;;;;;;;;;;;21.24;42.34;97387.69;3134233;27;115786;-57
2020/12/27 07:54:23;;;;;;;;;;;;;;;21.27;42.70;97400.09;3120104;27;114489;-57
2020/12/27 07:55:55;;;;;;;;;;;;;;;21.30;42.37;97393.72;3130697;27;115780;-57
2020/12/27 07:57:26;;;;;;;;;;;;;;;21.31;42.60;97403.72;3126351;27;114724;-58